sensor_id;sensor_type;location;lat;lon;timestamp;P1;durP1;ratioP1;P2;durP2;ratioP2
6517;SDS011;3292;48.944;9.240;2023-12-22T00:01:11;1.80;;;1.60;;
6517;SDS011;3292;48.944;9.240;2023-12-22T00:03:40;1.70;;;1.60;;
6517;SDS011;3292;48.944;9.240;2023-12-22T00:06:08;2.03;;;1.80;;
6517;SDS011;3292;48.944;9.240;2023-12-22T00:08:36;1.67;;;1.57;;
6517;SDS011;3292;48.944;9.240;2023-12-22T00:11:03;2.50;;;1.60;;
6517;SDS011;3292;48.944;9.240;2023-12-22T00:13:30;4.97;;;2.40;;
6517;SDS011;3292;48.944;9.240;2023-12-22T00:15:58;5.73;;;2.40;;
6517;SDS011;3292;48.944;9.240;2023-12-22T00:18:25;6.40;;;2.60;;
6517;SDS011;3292;48.944;9.240;2023-12-22T00:20:52;3.87;;;2.17;;
6517;SDS011;3292;48.944;9.240;2023-12-22T00:23:20;3.03;;;1.70;;
6517;SDS011;3292;48.944;9.240;2023-12-22T00:25:47;3.30;;;1.73;;
6517;SDS011;3292;48.944;9.240;2023-12-22T00:28:14;5.67;;;2.13;;
6517;SDS011;3292;48.944;9.240;2023-12-22T00:30:40;2.70;;;1.53;;
6517;SDS011;3292;48.944;9.240;2023-12-22T00:33:07;2.03;;;1.50;;
6517;SDS011;3292;48.944;9.240;2023-12-22T00:35:34;1.60;;;1.50;;
6517;SDS011;3292;48.944;9.240;2023-12-22T00:38:01;2.50;;;1.80;;
6517;SDS011;3292;48.944;9.240;2023-12-22T00:40:30;2.20;;;1.73;;
6517;SDS011;3292;48.944;9.240;2023-12-22T00:42:56;2.13;;;1.73;;
6517;SDS011;3292;48.944;9.240;2023-12-22T00:45:23;1.80;;;1.70;;
6517;SDS011;3292;48.944;9.240;2023-12-22T00:47:50;3.27;;;2.00;;
6517;SDS011;3292;48.944;9.240;2023-12-22T00:50:17;2.83;;;1.60;;
6517;SDS011;3292;48.944;9.240;2023-12-22T00:52:43;2.00;;;1.80;;
6517;SDS011;3292;48.944;9.240;2023-12-22T00:55:10;1.83;;;1.70;;
6517;SDS011;3292;48.944;9.240;2023-12-22T00:57:38;1.90;;;1.60;;
6517;SDS011;3292;48.944;9.240;2023-12-22T01:00:06;4.23;;;1.90;;
6517;SDS011;3292;48.944;9.240;2023-12-22T01:02:35;2.27;;;1.90;;
6517;SDS011;3292;48.944;9.240;2023-12-22T01:05:02;1.70;;;1.60;;
6517;SDS011;3292;48.944;9.240;2023-12-22T01:07:29;2.27;;;1.80;;
6517;SDS011;3292;48.944;9.240;2023-12-22T01:09:56;1.87;;;1.77;;
6517;SDS011;3292;48.944;9.240;2023-12-22T01:12:26;2.90;;;2.20;;
6517;SDS011;3292;48.944;9.240;2023-12-22T01:14:54;3.53;;;2.70;;
6517;SDS011;3292;48.944;9.240;2023-12-22T01:17:22;6.37;;;2.33;;
6517;SDS011;3292;48.944;9.240;2023-12-22T01:19:49;3.27;;;2.30;;
6517;SDS011;3292;48.944;9.240;2023-12-22T01:22:16;3.13;;;2.13;;
6517;SDS011;3292;48.944;9.240;2023-12-22T01:24:43;4.73;;;1.90;;
6517;SDS011;3292;48.944;9.240;2023-12-22T01:27:10;3.23;;;2.10;;
6517;SDS011;3292;48.944;9.240;2023-12-22T01:29:37;2.57;;;2.00;;
6517;SDS011;3292;48.944;9.240;2023-12-22T01:32:05;2.27;;;1.80;;
6517;SDS011;3292;48.944;9.240;2023-12-22T01:34:32;2.63;;;2.00;;
6517;SDS011;3292;48.944;9.240;2023-12-22T01:36:59;4.73;;;1.93;;
6517;SDS011;3292;48.944;9.240;2023-12-22T01:39:26;2.37;;;2.07;;
6517;SDS011;3292;48.944;9.240;2023-12-22T01:41:53;3.27;;;2.20;;
6517;SDS011;3292;48.944;9.240;2023-12-22T01:44:19;3.17;;;2.27;;
6517;SDS011;3292;48.944;9.240;2023-12-22T01:46:46;3.50;;;2.40;;
6517;SDS011;3292;48.944;9.240;2023-12-22T01:49:14;3.37;;;2.10;;
6517;SDS011;3292;48.944;9.240;2023-12-22T01:51:41;3.80;;;3.30;;
6517;SDS011;3292;48.944;9.240;2023-12-22T01:54:09;4.47;;;3.30;;
6517;SDS011;3292;48.944;9.240;2023-12-22T01:56:36;2.47;;;2.27;;
6517;SDS011;3292;48.944;9.240;2023-12-22T01:59:03;3.63;;;2.63;;
6517;SDS011;3292;48.944;9.240;2023-12-22T02:01:30;4.10;;;2.63;;
6517;SDS011;3292;48.944;9.240;2023-12-22T02:03:58;5.23;;;2.20;;
6517;SDS011;3292;48.944;9.240;2023-12-22T02:06:26;10.00;;;2.80;;
6517;SDS011;3292;48.944;9.240;2023-12-22T02:08:56;7.03;;;2.60;;
6517;SDS011;3292;48.944;9.240;2023-12-22T02:11:24;7.77;;;2.73;;
6517;SDS011;3292;48.944;9.240;2023-12-22T02:13:50;4.80;;;2.30;;
6517;SDS011;3292;48.944;9.240;2023-12-22T02:16:18;4.17;;;2.30;;
6517;SDS011;3292;48.944;9.240;2023-12-22T02:18:56;6.60;;;2.20;;
6517;SDS011;3292;48.944;9.240;2023-12-22T02:21:26;7.40;;;2.60;;
6517;SDS011;3292;48.944;9.240;2023-12-22T02:23:54;4.83;;;2.30;;
6517;SDS011;3292;48.944;9.240;2023-12-22T02:26:23;4.33;;;2.13;;
6517;SDS011;3292;48.944;9.240;2023-12-22T02:28:53;3.40;;;2.00;;
6517;SDS011;3292;48.944;9.240;2023-12-22T02:31:27;2.53;;;1.90;;
6517;SDS011;3292;48.944;9.240;2023-12-22T02:34:00;2.87;;;1.90;;
6517;SDS011;3292;48.944;9.240;2023-12-22T02:36:29;6.17;;;2.00;;
6517;SDS011;3292;48.944;9.240;2023-12-22T02:38:59;4.70;;;1.90;;
6517;SDS011;3292;48.944;9.240;2023-12-22T02:41:27;4.97;;;1.93;;
6517;SDS011;3292;48.944;9.240;2023-12-22T02:43:55;5.43;;;2.30;;
6517;SDS011;3292;48.944;9.240;2023-12-22T02:46:22;3.20;;;1.80;;
6517;SDS011;3292;48.944;9.240;2023-12-22T02:48:48;3.63;;;1.90;;
6517;SDS011;3292;48.944;9.240;2023-12-22T02:51:15;4.77;;;1.90;;
6517;SDS011;3292;48.944;9.240;2023-12-22T02:53:42;5.40;;;1.87;;
6517;SDS011;3292;48.944;9.240;2023-12-22T02:56:10;6.10;;;2.10;;
6517;SDS011;3292;48.944;9.240;2023-12-22T02:58:37;3.53;;;1.83;;
6517;SDS011;3292;48.944;9.240;2023-12-22T03:01:04;3.27;;;1.80;;
6517;SDS011;3292;48.944;9.240;2023-12-22T03:03:30;2.33;;;1.90;;
6517;SDS011;3292;48.944;9.240;2023-12-22T03:05:57;5.73;;;1.93;;
6517;SDS011;3292;48.944;9.240;2023-12-22T03:08:24;4.07;;;2.07;;
6517;SDS011;3292;48.944;9.240;2023-12-22T03:10:50;4.30;;;2.00;;
6517;SDS011;3292;48.944;9.240;2023-12-22T03:13:19;4.80;;;2.10;;
6517;SDS011;3292;48.944;9.240;2023-12-22T03:15:45;3.37;;;1.90;;
6517;SDS011;3292;48.944;9.240;2023-12-22T03:18:13;3.57;;;2.13;;
6517;SDS011;3292;48.944;9.240;2023-12-22T03:20:40;4.93;;;2.50;;
6517;SDS011;3292;48.944;9.240;2023-12-22T03:23:07;7.17;;;2.20;;
6517;SDS011;3292;48.944;9.240;2023-12-22T03:25:33;5.47;;;1.90;;
6517;SDS011;3292;48.944;9.240;2023-12-22T03:28:00;5.27;;;2.00;;
6517;SDS011;3292;48.944;9.240;2023-12-22T03:30:28;6.57;;;3.00;;
6517;SDS011;3292;48.944;9.240;2023-12-22T03:32:55;7.27;;;2.00;;
6517;SDS011;3292;48.944;9.240;2023-12-22T03:35:22;4.73;;;2.10;;
6517;SDS011;3292;48.944;9.240;2023-12-22T03:37:48;4.73;;;2.67;;
6517;SDS011;3292;48.944;9.240;2023-12-22T03:40:15;5.63;;;2.20;;
6517;SDS011;3292;48.944;9.240;2023-12-22T03:42:42;5.83;;;2.13;;
6517;SDS011;3292;48.944;9.240;2023-12-22T03:45:09;4.20;;;2.30;;
6517;SDS011;3292;48.944;9.240;2023-12-22T03:47:37;6.07;;;2.27;;
6517;SDS011;3292;48.944;9.240;2023-12-22T03:50:04;3.73;;;2.20;;
6517;SDS011;3292;48.944;9.240;2023-12-22T03:52:32;3.33;;;1.90;;
6517;SDS011;3292;48.944;9.240;2023-12-22T03:54:58;5.07;;;2.37;;
6517;SDS011;3292;48.944;9.240;2023-12-22T03:57:25;4.23;;;1.90;;
6517;SDS011;3292;48.944;9.240;2023-12-22T03:59:52;3.70;;;2.03;;
6517;SDS011;3292;48.944;9.240;2023-12-22T04:02:19;6.00;;;2.10;;
6517;SDS011;3292;48.944;9.240;2023-12-22T04:04:47;3.87;;;1.93;;
6517;SDS011;3292;48.944;9.240;2023-12-22T04:07:14;4.50;;;2.10;;
6517;SDS011;3292;48.944;9.240;2023-12-22T04:09:40;4.07;;;2.03;;
6517;SDS011;3292;48.944;9.240;2023-12-22T04:12:07;3.77;;;2.60;;
6517;SDS011;3292;48.944;9.240;2023-12-22T04:14:34;6.03;;;2.67;;
6517;SDS011;3292;48.944;9.240;2023-12-22T04:17:01;3.37;;;1.93;;
6517;SDS011;3292;48.944;9.240;2023-12-22T04:19:28;3.93;;;1.97;;
6517;SDS011;3292;48.944;9.240;2023-12-22T04:21:56;2.67;;;1.90;;
6517;SDS011;3292;48.944;9.240;2023-12-22T04:24:22;4.93;;;2.00;;
6517;SDS011;3292;48.944;9.240;2023-12-22T04:26:49;1.80;;;1.63;;
6517;SDS011;3292;48.944;9.240;2023-12-22T04:29:16;2.93;;;1.67;;
6517;SDS011;3292;48.944;9.240;2023-12-22T04:31:43;2.73;;;1.80;;
6517;SDS011;3292;48.944;9.240;2023-12-22T04:34:11;6.80;;;2.13;;
6517;SDS011;3292;48.944;9.240;2023-12-22T04:36:39;3.47;;;1.87;;
6517;SDS011;3292;48.944;9.240;2023-12-22T04:39:07;3.13;;;2.03;;
6517;SDS011;3292;48.944;9.240;2023-12-22T04:41:34;4.77;;;2.00;;
6517;SDS011;3292;48.944;9.240;2023-12-22T04:44:00;6.50;;;2.20;;
6517;SDS011;3292;48.944;9.240;2023-12-22T04:46:28;7.87;;;3.17;;
6517;SDS011;3292;48.944;9.240;2023-12-22T04:48:55;7.00;;;2.40;;
6517;SDS011;3292;48.944;9.240;2023-12-22T04:51:22;5.50;;;2.80;;
6517;SDS011;3292;48.944;9.240;2023-12-22T04:53:49;7.07;;;2.50;;
6517;SDS011;3292;48.944;9.240;2023-12-22T04:56:17;5.80;;;2.47;;
6517;SDS011;3292;48.944;9.240;2023-12-22T04:58:44;6.90;;;3.07;;
6517;SDS011;3292;48.944;9.240;2023-12-22T05:01:13;9.03;;;2.60;;
6517;SDS011;3292;48.944;9.240;2023-12-22T05:03:40;9.73;;;2.97;;
6517;SDS011;3292;48.944;9.240;2023-12-22T05:06:07;7.70;;;2.63;;
6517;SDS011;3292;48.944;9.240;2023-12-22T05:08:33;6.63;;;2.60;;
6517;SDS011;3292;48.944;9.240;2023-12-22T05:11:00;6.47;;;2.50;;
6517;SDS011;3292;48.944;9.240;2023-12-22T05:13:29;7.77;;;2.70;;
6517;SDS011;3292;48.944;9.240;2023-12-22T05:15:56;5.37;;;2.37;;
6517;SDS011;3292;48.944;9.240;2023-12-22T05:18:23;8.40;;;2.73;;
6517;SDS011;3292;48.944;9.240;2023-12-22T05:20:50;7.37;;;2.70;;
6517;SDS011;3292;48.944;9.240;2023-12-22T05:23:17;6.30;;;2.93;;
6517;SDS011;3292;48.944;9.240;2023-12-22T05:25:44;5.33;;;2.30;;
6517;SDS011;3292;48.944;9.240;2023-12-22T05:28:11;7.33;;;2.70;;
6517;SDS011;3292;48.944;9.240;2023-12-22T05:30:39;9.07;;;2.77;;
6517;SDS011;3292;48.944;9.240;2023-12-22T05:33:06;8.33;;;2.80;;
6517;SDS011;3292;48.944;9.240;2023-12-22T05:35:33;6.33;;;3.10;;
6517;SDS011;3292;48.944;9.240;2023-12-22T05:37:59;5.93;;;2.60;;
6517;SDS011;3292;48.944;9.240;2023-12-22T05:40:26;7.40;;;2.70;;
6517;SDS011;3292;48.944;9.240;2023-12-22T05:42:53;7.73;;;2.70;;
6517;SDS011;3292;48.944;9.240;2023-12-22T05:45:20;8.37;;;3.10;;
6517;SDS011;3292;48.944;9.240;2023-12-22T05:47:48;7.43;;;2.87;;
6517;SDS011;3292;48.944;9.240;2023-12-22T05:50:15;7.47;;;2.77;;
6517;SDS011;3292;48.944;9.240;2023-12-22T05:52:41;10.73;;;2.97;;
6517;SDS011;3292;48.944;9.240;2023-12-22T05:55:09;6.77;;;2.67;;
6517;SDS011;3292;48.944;9.240;2023-12-22T05:57:36;7.87;;;3.30;;
6517;SDS011;3292;48.944;9.240;2023-12-22T06:00:04;12.60;;;2.90;;
6517;SDS011;3292;48.944;9.240;2023-12-22T06:02:32;8.03;;;3.47;;
6517;SDS011;3292;48.944;9.240;2023-12-22T06:05:00;9.77;;;3.00;;
6517;SDS011;3292;48.944;9.240;2023-12-22T06:07:27;8.97;;;3.27;;
6517;SDS011;3292;48.944;9.240;2023-12-22T06:09:54;6.60;;;3.10;;
6517;SDS011;3292;48.944;9.240;2023-12-22T06:12:21;6.80;;;2.80;;
6517;SDS011;3292;48.944;9.240;2023-12-22T06:14:48;9.07;;;3.27;;
6517;SDS011;3292;48.944;9.240;2023-12-22T06:17:14;7.57;;;3.17;;
6517;SDS011;3292;48.944;9.240;2023-12-22T06:19:41;9.03;;;3.17;;
6517;SDS011;3292;48.944;9.240;2023-12-22T06:22:09;8.57;;;2.93;;
6517;SDS011;3292;48.944;9.240;2023-12-22T06:24:36;13.40;;;3.60;;
6517;SDS011;3292;48.944;9.240;2023-12-22T06:27:03;12.10;;;3.40;;
6517;SDS011;3292;48.944;9.240;2023-12-22T06:29:31;8.47;;;3.80;;
6517;SDS011;3292;48.944;9.240;2023-12-22T06:31:58;8.83;;;3.87;;
6517;SDS011;3292;48.944;9.240;2023-12-22T06:34:25;8.90;;;3.23;;
6517;SDS011;3292;48.944;9.240;2023-12-22T06:36:52;11.00;;;3.50;;
6517;SDS011;3292;48.944;9.240;2023-12-22T06:39:20;9.03;;;3.40;;
6517;SDS011;3292;48.944;9.240;2023-12-22T06:41:47;7.47;;;3.23;;
6517;SDS011;3292;48.944;9.240;2023-12-22T06:44:14;12.57;;;4.17;;
6517;SDS011;3292;48.944;9.240;2023-12-22T06:46:40;8.97;;;3.50;;
6517;SDS011;3292;48.944;9.240;2023-12-22T06:49:07;11.70;;;3.50;;
6517;SDS011;3292;48.944;9.240;2023-12-22T06:51:34;9.90;;;3.00;;
6517;SDS011;3292;48.944;9.240;2023-12-22T06:54:01;11.30;;;3.20;;
6517;SDS011;3292;48.944;9.240;2023-12-22T06:56:32;9.17;;;2.83;;
6517;SDS011;3292;48.944;9.240;2023-12-22T06:59:01;15.40;;;3.43;;
6517;SDS011;3292;48.944;9.240;2023-12-22T07:01:29;7.67;;;2.67;;
6517;SDS011;3292;48.944;9.240;2023-12-22T07:03:57;10.13;;;2.57;;
6517;SDS011;3292;48.944;9.240;2023-12-22T07:06:25;8.67;;;2.87;;
6517;SDS011;3292;48.944;9.240;2023-12-22T07:08:57;7.73;;;3.23;;
6517;SDS011;3292;48.944;9.240;2023-12-22T07:11:42;6.70;;;2.70;;
6517;SDS011;3292;48.944;9.240;2023-12-22T07:14:09;13.03;;;3.33;;
6517;SDS011;3292;48.944;9.240;2023-12-22T07:16:36;8.23;;;2.97;;
6517;SDS011;3292;48.944;9.240;2023-12-22T07:19:03;7.93;;;2.80;;
6517;SDS011;3292;48.944;9.240;2023-12-22T07:21:31;10.63;;;3.23;;
6517;SDS011;3292;48.944;9.240;2023-12-22T07:23:57;8.10;;;2.93;;
6517;SDS011;3292;48.944;9.240;2023-12-22T07:26:24;9.40;;;3.10;;
6517;SDS011;3292;48.944;9.240;2023-12-22T07:28:53;8.40;;;3.10;;
6517;SDS011;3292;48.944;9.240;2023-12-22T07:31:20;11.10;;;3.03;;
6517;SDS011;3292;48.944;9.240;2023-12-22T07:33:47;7.20;;;3.00;;
6517;SDS011;3292;48.944;9.240;2023-12-22T07:36:14;7.83;;;2.97;;
6517;SDS011;3292;48.944;9.240;2023-12-22T07:38:41;9.30;;;3.53;;
6517;SDS011;3292;48.944;9.240;2023-12-22T07:41:08;13.77;;;3.33;;
6517;SDS011;3292;48.944;9.240;2023-12-22T07:43:35;9.37;;;3.53;;
6517;SDS011;3292;48.944;9.240;2023-12-22T07:46:03;8.77;;;3.00;;
6517;SDS011;3292;48.944;9.240;2023-12-22T07:48:30;11.60;;;3.70;;
6517;SDS011;3292;48.944;9.240;2023-12-22T07:50:56;7.63;;;3.57;;
6517;SDS011;3292;48.944;9.240;2023-12-22T07:53:23;13.97;;;3.53;;
6517;SDS011;3292;48.944;9.240;2023-12-22T07:55:50;8.50;;;3.00;;
6517;SDS011;3292;48.944;9.240;2023-12-22T07:58:17;10.00;;;3.00;;
6517;SDS011;3292;48.944;9.240;2023-12-22T08:00:44;9.53;;;3.13;;
6517;SDS011;3292;48.944;9.240;2023-12-22T08:03:13;6.80;;;3.37;;
6517;SDS011;3292;48.944;9.240;2023-12-22T08:05:40;6.80;;;3.10;;
6517;SDS011;3292;48.944;9.240;2023-12-22T08:08:07;7.17;;;2.83;;
6517;SDS011;3292;48.944;9.240;2023-12-22T08:10:34;7.33;;;3.50;;
6517;SDS011;3292;48.944;9.240;2023-12-22T08:13:01;10.70;;;3.37;;
6517;SDS011;3292;48.944;9.240;2023-12-22T08:15:27;5.87;;;2.87;;
6517;SDS011;3292;48.944;9.240;2023-12-22T08:17:54;11.57;;;3.00;;
6517;SDS011;3292;48.944;9.240;2023-12-22T08:20:22;5.77;;;2.77;;
6517;SDS011;3292;48.944;9.240;2023-12-22T08:22:49;10.57;;;2.90;;
6517;SDS011;3292;48.944;9.240;2023-12-22T08:25:16;5.73;;;2.80;;
6517;SDS011;3292;48.944;9.240;2023-12-22T08:27:45;7.87;;;3.10;;
6517;SDS011;3292;48.944;9.240;2023-12-22T08:30:12;8.13;;;3.00;;
6517;SDS011;3292;48.944;9.240;2023-12-22T08:32:39;6.10;;;2.67;;
6517;SDS011;3292;48.944;9.240;2023-12-22T08:35:07;11.53;;;3.37;;
6517;SDS011;3292;48.944;9.240;2023-12-22T08:37:35;10.83;;;3.87;;
6517;SDS011;3292;48.944;9.240;2023-12-22T08:40:02;11.00;;;3.83;;
6517;SDS011;3292;48.944;9.240;2023-12-22T08:42:31;8.63;;;3.30;;
6517;SDS011;3292;48.944;9.240;2023-12-22T08:44:57;9.10;;;3.33;;
6517;SDS011;3292;48.944;9.240;2023-12-22T08:47:24;6.97;;;3.33;;
6517;SDS011;3292;48.944;9.240;2023-12-22T08:49:51;8.57;;;3.10;;
6517;SDS011;3292;48.944;9.240;2023-12-22T08:52:18;12.87;;;3.37;;
6517;SDS011;3292;48.944;9.240;2023-12-22T08:54:47;12.40;;;3.63;;
6517;SDS011;3292;48.944;9.240;2023-12-22T08:57:13;8.63;;;3.27;;
6517;SDS011;3292;48.944;9.240;2023-12-22T08:59:40;9.30;;;3.60;;
6517;SDS011;3292;48.944;9.240;2023-12-22T09:02:07;11.73;;;3.40;;
6517;SDS011;3292;48.944;9.240;2023-12-22T09:04:34;14.73;;;3.83;;
6517;SDS011;3292;48.944;9.240;2023-12-22T09:07:00;9.83;;;3.73;;
6517;SDS011;3292;48.944;9.240;2023-12-22T09:09:27;12.03;;;4.17;;
6517;SDS011;3292;48.944;9.240;2023-12-22T09:11:55;10.77;;;3.63;;
6517;SDS011;3292;48.944;9.240;2023-12-22T09:14:22;11.73;;;4.27;;
6517;SDS011;3292;48.944;9.240;2023-12-22T09:16:49;13.47;;;4.67;;
6517;SDS011;3292;48.944;9.240;2023-12-22T09:19:16;14.87;;;5.03;;
6517;SDS011;3292;48.944;9.240;2023-12-22T09:21:42;17.20;;;4.83;;
6517;SDS011;3292;48.944;9.240;2023-12-22T09:24:09;16.07;;;4.43;;
6517;SDS011;3292;48.944;9.240;2023-12-22T09:26:37;15.37;;;3.97;;
6517;SDS011;3292;48.944;9.240;2023-12-22T09:29:06;17.63;;;4.23;;
6517;SDS011;3292;48.944;9.240;2023-12-22T09:31:32;13.27;;;4.80;;
6517;SDS011;3292;48.944;9.240;2023-12-22T09:33:59;16.33;;;4.73;;
6517;SDS011;3292;48.944;9.240;2023-12-22T09:36:26;14.40;;;4.23;;
6517;SDS011;3292;48.944;9.240;2023-12-22T09:38:53;17.40;;;4.67;;
6517;SDS011;3292;48.944;9.240;2023-12-22T09:41:20;14.47;;;5.10;;
6517;SDS011;3292;48.944;9.240;2023-12-22T09:43:46;16.27;;;4.87;;
6517;SDS011;3292;48.944;9.240;2023-12-22T09:46:18;21.47;;;5.10;;
6517;SDS011;3292;48.944;9.240;2023-12-22T09:48:46;18.20;;;4.37;;
6517;SDS011;3292;48.944;9.240;2023-12-22T09:51:15;14.33;;;4.10;;
6517;SDS011;3292;48.944;9.240;2023-12-22T09:53:45;15.20;;;4.20;;
6517;SDS011;3292;48.944;9.240;2023-12-22T09:56:13;16.70;;;4.83;;
6517;SDS011;3292;48.944;9.240;2023-12-22T09:58:41;13.10;;;3.80;;
6517;SDS011;3292;48.944;9.240;2023-12-22T10:01:08;16.00;;;4.37;;
6517;SDS011;3292;48.944;9.240;2023-12-22T10:03:37;13.50;;;5.03;;
6517;SDS011;3292;48.944;9.240;2023-12-22T10:06:04;13.03;;;3.90;;
6517;SDS011;3292;48.944;9.240;2023-12-22T10:08:31;18.90;;;4.30;;
6517;SDS011;3292;48.944;9.240;2023-12-22T10:10:59;12.87;;;3.93;;
6517;SDS011;3292;48.944;9.240;2023-12-22T10:13:26;16.17;;;4.17;;
6517;SDS011;3292;48.944;9.240;2023-12-22T10:15:53;20.70;;;4.40;;
6517;SDS011;3292;48.944;9.240;2023-12-22T10:18:20;13.53;;;4.23;;
6517;SDS011;3292;48.944;9.240;2023-12-22T10:20:49;15.83;;;4.17;;
6517;SDS011;3292;48.944;9.240;2023-12-22T10:23:17;16.40;;;4.30;;
6517;SDS011;3292;48.944;9.240;2023-12-22T10:25:44;9.33;;;3.90;;
6517;SDS011;3292;48.944;9.240;2023-12-22T10:28:12;14.93;;;4.57;;
6517;SDS011;3292;48.944;9.240;2023-12-22T10:30:39;15.43;;;4.50;;
6517;SDS011;3292;48.944;9.240;2023-12-22T10:33:06;14.00;;;4.13;;
6517;SDS011;3292;48.944;9.240;2023-12-22T10:35:33;12.83;;;4.20;;
6517;SDS011;3292;48.944;9.240;2023-12-22T10:38:02;13.70;;;4.77;;
6517;SDS011;3292;48.944;9.240;2023-12-22T10:40:30;12.93;;;4.03;;
6517;SDS011;3292;48.944;9.240;2023-12-22T10:42:58;15.67;;;4.10;;
6517;SDS011;3292;48.944;9.240;2023-12-22T10:45:25;11.57;;;3.87;;
6517;SDS011;3292;48.944;9.240;2023-12-22T10:47:54;18.83;;;4.77;;
6517;SDS011;3292;48.944;9.240;2023-12-22T10:50:21;16.30;;;4.33;;
6517;SDS011;3292;48.944;9.240;2023-12-22T10:52:50;12.00;;;4.00;;
6517;SDS011;3292;48.944;9.240;2023-12-22T10:55:19;16.27;;;4.70;;
6517;SDS011;3292;48.944;9.240;2023-12-22T10:57:46;13.03;;;4.30;;
6517;SDS011;3292;48.944;9.240;2023-12-22T11:00:13;17.97;;;4.70;;
6517;SDS011;3292;48.944;9.240;2023-12-22T11:02:42;12.63;;;3.90;;
6517;SDS011;3292;48.944;9.240;2023-12-22T11:05:13;13.00;;;3.80;;
6517;SDS011;3292;48.944;9.240;2023-12-22T11:07:43;15.33;;;4.03;;
6517;SDS011;3292;48.944;9.240;2023-12-22T11:10:16;9.53;;;3.87;;
6517;SDS011;3292;48.944;9.240;2023-12-22T11:12:47;11.43;;;3.53;;
6517;SDS011;3292;48.944;9.240;2023-12-22T11:15:14;10.03;;;3.90;;
6517;SDS011;3292;48.944;9.240;2023-12-22T11:17:42;13.17;;;3.50;;
6517;SDS011;3292;48.944;9.240;2023-12-22T11:20:10;9.97;;;3.70;;
6517;SDS011;3292;48.944;9.240;2023-12-22T11:22:39;12.47;;;3.20;;
6517;SDS011;3292;48.944;9.240;2023-12-22T11:25:07;10.03;;;3.40;;
6517;SDS011;3292;48.944;9.240;2023-12-22T11:27:36;10.70;;;3.20;;
6517;SDS011;3292;48.944;9.240;2023-12-22T11:30:04;10.13;;;3.53;;
6517;SDS011;3292;48.944;9.240;2023-12-22T11:32:33;13.03;;;3.50;;
6517;SDS011;3292;48.944;9.240;2023-12-22T11:35:00;9.20;;;3.60;;
6517;SDS011;3292;48.944;9.240;2023-12-22T11:37:28;11.80;;;3.97;;
6517;SDS011;3292;48.944;9.240;2023-12-22T11:39:57;10.13;;;3.33;;
6517;SDS011;3292;48.944;9.240;2023-12-22T11:42:26;9.93;;;3.53;;
6517;SDS011;3292;48.944;9.240;2023-12-22T11:44:58;7.37;;;3.40;;
6517;SDS011;3292;48.944;9.240;2023-12-22T11:47:25;7.47;;;2.80;;
6517;SDS011;3292;48.944;9.240;2023-12-22T11:49:53;9.57;;;3.33;;
6517;SDS011;3292;48.944;9.240;2023-12-22T11:52:24;9.33;;;2.97;;
6517;SDS011;3292;48.944;9.240;2023-12-22T11:54:53;7.40;;;3.23;;
6517;SDS011;3292;48.944;9.240;2023-12-22T11:57:34;3.87;;;2.47;;
6517;SDS011;3292;48.944;9.240;2023-12-22T12:00:05;5.40;;;2.50;;
6517;SDS011;3292;48.944;9.240;2023-12-22T12:02:33;6.33;;;2.20;;
6517;SDS011;3292;48.944;9.240;2023-12-22T12:05:02;5.47;;;2.57;;
6517;SDS011;3292;48.944;9.240;2023-12-22T12:07:37;9.07;;;3.20;;
6517;SDS011;3292;48.944;9.240;2023-12-22T12:10:05;7.23;;;3.33;;
6517;SDS011;3292;48.944;9.240;2023-12-22T12:12:33;5.47;;;2.70;;
6517;SDS011;3292;48.944;9.240;2023-12-22T12:15:06;3.80;;;2.47;;
6517;SDS011;3292;48.944;9.240;2023-12-22T12:17:37;7.50;;;2.53;;
6517;SDS011;3292;48.944;9.240;2023-12-22T12:20:05;3.27;;;2.27;;
6517;SDS011;3292;48.944;9.240;2023-12-22T12:22:34;4.70;;;2.10;;
6517;SDS011;3292;48.944;9.240;2023-12-22T12:25:03;6.13;;;2.37;;
6517;SDS011;3292;48.944;9.240;2023-12-22T12:27:33;3.07;;;1.90;;
6517;SDS011;3292;48.944;9.240;2023-12-22T12:30:07;2.80;;;1.73;;
6517;SDS011;3292;48.944;9.240;2023-12-22T12:32:39;4.90;;;1.90;;
6517;SDS011;3292;48.944;9.240;2023-12-22T12:35:08;4.13;;;1.90;;
6517;SDS011;3292;48.944;9.240;2023-12-22T12:37:35;3.43;;;1.70;;
6517;SDS011;3292;48.944;9.240;2023-12-22T12:40:03;3.33;;;1.60;;
6517;SDS011;3292;48.944;9.240;2023-12-22T12:42:34;4.40;;;1.97;;
6517;SDS011;3292;48.944;9.240;2023-12-22T12:45:02;2.00;;;1.80;;
6517;SDS011;3292;48.944;9.240;2023-12-22T12:47:31;3.83;;;2.00;;
6517;SDS011;3292;48.944;9.240;2023-12-22T12:49:58;2.83;;;1.90;;
6517;SDS011;3292;48.944;9.240;2023-12-22T12:52:26;3.23;;;1.50;;
6517;SDS011;3292;48.944;9.240;2023-12-22T12:54:53;2.33;;;1.50;;
6517;SDS011;3292;48.944;9.240;2023-12-22T12:57:20;3.03;;;1.70;;
6517;SDS011;3292;48.944;9.240;2023-12-22T12:59:48;4.17;;;1.80;;
6517;SDS011;3292;48.944;9.240;2023-12-22T13:02:16;2.37;;;1.60;;
6517;SDS011;3292;48.944;9.240;2023-12-22T13:04:45;2.70;;;1.73;;
6517;SDS011;3292;48.944;9.240;2023-12-22T13:07:12;2.33;;;1.40;;
6517;SDS011;3292;48.944;9.240;2023-12-22T13:09:39;2.20;;;1.43;;
6517;SDS011;3292;48.944;9.240;2023-12-22T13:12:07;1.93;;;1.47;;
6517;SDS011;3292;48.944;9.240;2023-12-22T13:14:34;1.90;;;1.60;;
6517;SDS011;3292;48.944;9.240;2023-12-22T13:17:02;2.40;;;1.70;;
6517;SDS011;3292;48.944;9.240;2023-12-22T13:19:29;1.60;;;1.50;;
6517;SDS011;3292;48.944;9.240;2023-12-22T13:21:57;2.13;;;1.70;;
6517;SDS011;3292;48.944;9.240;2023-12-22T13:24:25;1.80;;;1.30;;
6517;SDS011;3292;48.944;9.240;2023-12-22T13:26:59;2.43;;;1.50;;
6517;SDS011;3292;48.944;9.240;2023-12-22T13:29:27;1.60;;;1.50;;
6517;SDS011;3292;48.944;9.240;2023-12-22T13:31:54;1.60;;;1.50;;
6517;SDS011;3292;48.944;9.240;2023-12-22T13:34:22;1.73;;;1.20;;
6517;SDS011;3292;48.944;9.240;2023-12-22T13:36:49;1.90;;;1.50;;
6517;SDS011;3292;48.944;9.240;2023-12-22T13:39:18;2.50;;;1.43;;
6517;SDS011;3292;48.944;9.240;2023-12-22T13:41:45;1.73;;;1.63;;
6517;SDS011;3292;48.944;9.240;2023-12-22T13:44:11;1.47;;;1.37;;
6517;SDS011;3292;48.944;9.240;2023-12-22T13:46:39;1.80;;;1.50;;
6517;SDS011;3292;48.944;9.240;2023-12-22T13:49:07;1.80;;;1.40;;
6517;SDS011;3292;48.944;9.240;2023-12-22T13:51:38;1.53;;;1.43;;
6517;SDS011;3292;48.944;9.240;2023-12-22T13:54:06;1.33;;;1.23;;
6517;SDS011;3292;48.944;9.240;2023-12-22T13:56:34;1.47;;;1.23;;
6517;SDS011;3292;48.944;9.240;2023-12-22T13:59:01;1.20;;;1.10;;
6517;SDS011;3292;48.944;9.240;2023-12-22T14:01:29;1.47;;;1.37;;
6517;SDS011;3292;48.944;9.240;2023-12-22T14:03:56;1.73;;;1.63;;
6517;SDS011;3292;48.944;9.240;2023-12-22T14:06:23;1.50;;;1.40;;
6517;SDS011;3292;48.944;9.240;2023-12-22T14:08:50;1.50;;;1.40;;
6517;SDS011;3292;48.944;9.240;2023-12-22T14:11:17;2.23;;;1.60;;
6517;SDS011;3292;48.944;9.240;2023-12-22T14:13:45;1.40;;;1.30;;
6517;SDS011;3292;48.944;9.240;2023-12-22T14:16:12;1.73;;;1.40;;
6517;SDS011;3292;48.944;9.240;2023-12-22T14:18:40;1.63;;;1.53;;
6517;SDS011;3292;48.944;9.240;2023-12-22T14:21:07;2.13;;;1.40;;
6517;SDS011;3292;48.944;9.240;2023-12-22T14:23:34;1.53;;;1.43;;
6517;SDS011;3292;48.944;9.240;2023-12-22T14:26:01;1.73;;;1.63;;
6517;SDS011;3292;48.944;9.240;2023-12-22T14:28:28;2.00;;;1.63;;
6517;SDS011;3292;48.944;9.240;2023-12-22T14:30:56;1.40;;;1.30;;
6517;SDS011;3292;48.944;9.240;2023-12-22T14:33:23;1.60;;;1.50;;
6517;SDS011;3292;48.944;9.240;2023-12-22T14:35:49;1.50;;;1.40;;
6517;SDS011;3292;48.944;9.240;2023-12-22T14:38:16;1.40;;;1.30;;
6517;SDS011;3292;48.944;9.240;2023-12-22T14:40:43;1.50;;;1.40;;
6517;SDS011;3292;48.944;9.240;2023-12-22T14:43:10;1.43;;;1.33;;
6517;SDS011;3292;48.944;9.240;2023-12-22T14:45:36;1.53;;;1.43;;
6517;SDS011;3292;48.944;9.240;2023-12-22T14:48:05;1.50;;;1.40;;
6517;SDS011;3292;48.944;9.240;2023-12-22T14:50:32;1.50;;;1.40;;
6517;SDS011;3292;48.944;9.240;2023-12-22T14:52:59;1.40;;;1.30;;
6517;SDS011;3292;48.944;9.240;2023-12-22T14:55:26;1.37;;;1.27;;
6517;SDS011;3292;48.944;9.240;2023-12-22T14:57:53;1.53;;;1.43;;
6517;SDS011;3292;48.944;9.240;2023-12-22T15:00:20;1.30;;;1.20;;
6517;SDS011;3292;48.944;9.240;2023-12-22T15:02:47;1.10;;;1.10;;
6517;SDS011;3292;48.944;9.240;2023-12-22T15:05:15;3.00;;;1.37;;
6517;SDS011;3292;48.944;9.240;2023-12-22T15:07:45;2.13;;;1.40;;
6517;SDS011;3292;48.944;9.240;2023-12-22T15:10:12;1.20;;;1.10;;
6517;SDS011;3292;48.944;9.240;2023-12-22T15:12:38;2.50;;;1.30;;
6517;SDS011;3292;48.944;9.240;2023-12-22T15:15:08;1.47;;;1.37;;